x

Yucatan Basin - 120 Nm Ese Of Cozumel, Mx (42056) Wave Buoy

4:50 - Sun 23rd Nov 2014 All times are CST. -6 hours from GMT.

  • Sig Wave height 3.6ft
  • Swell Direction
  • Peak Period 5s
  • Average Period 4s
  • Wind
    16mph, 20mph gusts
  • Sea Temp 83°f
  • Air Temp 83°f
  • Sea Pressure 1009.1mb
  •  Yucatan Basin - 120 Nm Ese Of Cozumel, Mx
  •  Yucatan Basin - 120 Nm Ese Of Cozumel, Mx

More Historic Weather Station data

Upgrade to MSW Pro to gain access to the past 30 days of data for over 8000 Wavebouys and Weather Stations around the globe.

Join Pro

Comparision Forecast

View Surf forecast
   
dim. 11/23 4:50 3.5ft 5s 4s 16 20 mph 1009.1mb 83f 83f
3:50 3.5ft 6s 5s 16 20 mph 1009.5mb 83f 83f
2:50 3.5ft 6s 5s 16 20 mph 1009.4mb 83f 83f
1:50 3.5ft 6s 5s 13 18 mph 1009.8mb 83f 83f
12:50 3.5ft 6s 5s 13 16 mph 1010.4mb 83f 83f
11:50 3.5ft 6s 5s 13 16 mph 1011.8mb 83f 83f
10:50 3.5ft 6s 5s 11 13 mph 1012.8mb 83f 83f
9:50 3.5ft 5s 5s 13 16 mph 1013.5mb 83f 83f
8:50 3.5ft 5s 5s 13 16 mph 1013.5mb 83f 83f
7:50 3.5ft 8s 5s 16 18 mph 1013mb 83f 83f
6:50 3.5ft 8s 5s 13 16 mph 1012.4mb 83f 82f
5:50 2.5ft 7s 4s 13 18 mph 1012mb 83f 81f
4:50 2.5ft 8s 5s 13 18 mph 1011.8mb 83f 82f
3:50 2.5ft 9s 5s 11 13 mph 1011.7mb 83f 82f
2:50 2.5ft 5s 5s 9 11 mph 1012mb 83f 82f
1:50 3ft 8s 5s 9 11 mph 1012.3mb 83f 82f
12:50 3ft 8s 5s 11 13 mph 1013.1mb 83f 82f
sam. 11/22 11:50 3ft 8s 5s 13 16 mph 1013.5mb 83f 82f
10:50 3ft 8s 4s 13 16 mph 1013.9mb 83f 82f
9:50 3ft 7s 4s 13 16 mph 1014.3mb 83f 82f
8:50 2.5ft 5s 5s 11 13 mph 1014.4mb 83f 82f
7:50 3ft 5s 5s 13
mph
1014.1mb 83f 82f
6:50 2.5ft 8s 5s 11 13 mph 1013.7mb 83f 82f
5:50 3ft 8s 5s 11 13 mph 1013mb 83f 82f
4:50 3ft 8s 4s 11 13 mph 1012.9mb 83f 82f
3:50 3ft 8s 5s 13
mph
1012.7mb 83f 82f
2:50 3ft 8s 4s 13 16 mph 1012.9mb 83f 82f
1:50 3ft 8s 5s 9 11 mph 1013.4mb 83f 83f
12:50 2.5ft 7s 4s 11 13 mph 1013.9mb 83f 82f
11:50 3ft 8s 5s 13
mph
1015mb 83f 83f
10:50 3ft 8s 5s 13 18 mph 1015.8mb 83f 82f
9:50 2.5ft 8s 4s 13 16 mph 1016.5mb 83f 82f
8:50 2.5ft 8s 5s 16 18 mph 1016.3mb 83f 82f
7:50 2.5ft 8s 5s 11 16 mph 1016mb 83f 82f
6:50 2.5ft 7s 5s 11 16 mph 1015.7mb 83f 82f
5:50 2.5ft 8s 5s 11 13 mph 1015.5mb 83f 82f
4:50 2.5ft 7s 5s 11 13 mph 1015.2mb 83f 81f
3:50 2.5ft 8s 5s 13 16 mph 1014.8mb 83f 82f
2:50 2.5ft 8s 5s 11 13 mph 1014.8mb 83f 81f
1:50 2.5ft 8s 5s 11 13 mph 1014.9mb 83f 81f
12:50 2.5ft 7s 5s 11 13 mph 1015.2mb 83f 81f
ven. 11/21 11:50 2.5ft 8s 5s 11 13 mph 1015.6mb 83f 81f
10:50 2.5ft 8s 5s 11
mph
1016.2mb 83f 82f
9:50 2.5ft 8s 5s 11 13 mph 1016.4mb 83f 82f
8:50 2.5ft 8s 5s 11 13 mph 1016.1mb 83f 82f
7:50 3ft 8s 5s 9 11 mph 1015.9mb 83f 82f
6:50 3ft 8s 5s 13 16 mph 1015.5mb 83f 81f
5:50 3ft 8s 5s 11 13 mph 1015mb 83f 81f
4:50 3ft 8s 5s 13 16 mph 1014.6mb 83f 81f
3:50 3ft 8s 5s 11 13 mph 1014.1mb 83f 82f
2:50 3ft 8s 5s 11 13 mph 1014.2mb 83f 82f
1:50 3.5ft 8s 5s 11 13 mph 1014.3mb 83f 82f
12:50 3.5ft 7s 5s 11 13 mph 1015mb 83f 82f
11:50 3.5ft 8s 5s 11 13 mph 1015.8mb 83f 82f
10:50 3.5ft 5s 5s 11 13 mph 1016.6mb 83f 82f
9:50 3.5ft 6s 5s 11 13 mph 1016.9mb 83f 82f
8:50 3.5ft 6s 5s 13 16 mph 1017mb 83f 82f
7:50 4ft 6s 5s 11 13 mph 1016.2mb 83f 82f
6:50 3.5ft 6s 5s 11 13 mph 1015.6mb 83f 81f
5:50 3.5ft 6s 5s 11 13 mph 1015.1mb 83f 81f
4:50 4ft 6s 5s 11 13 mph 1014.5mb 83f 81f
3:50 4ft 6s 5s 13 16 mph 1014.4mb 83f 81f
2:50 4ft 6s 5s 11
mph
1014.2mb 83f 81f
1:50 4ft 6s 5s 11 13 mph 1014.4mb 83f 81f
12:50 4.5ft 6s 5s 11 13 mph 1014.6mb 83f 81f
jeu. 11/20 11:50 4.5ft 6s 5s 11 16 mph 1015.1mb 83f 81f
10:50 4.5ft 6s 5s 13 16 mph 1015.4mb 83f 81f
9:50 5ft 6s 5s 13 16 mph 1015.9mb 83f 81f
8:50 5.5ft 6s 5s 16 18 mph 1015.7mb 83f 81f
7:50 5.5ft 7s 5s 18 20 mph 1015.3mb 83f 81f
6:50 6ft 6s 5s 16 20 mph 1014.9mb 83f 81f
5:50 6ft 7s 5s 16 20 mph 1014.4mb 83f 81f
4:50 6ft 6s 5s 16 20 mph 1014.1mb 83f 81f
3:50 6ft 7s 5s 20 22 mph 1013.7mb 83f 80f
2:50 7ft 6s 6s 18 22 mph 1013.5mb 83f 80f
1:50 6ft 6s 5s 20 22 mph 1013.5mb 83f 80f
12:50 7ft 7s 6s 20 25 mph 1014.2mb 83f 80f
11:50 7ft 7s 6s 22 25 mph 1015.1mb 83f 81f
10:50 7.5ft 7s 6s 22 27 mph 1016.2mb 83f 81f
9:50 7ft 7s 6s 22 25 mph 1016.5mb 83f 81f
8:50 7ft 6s 6s 22 25 mph 1016.8mb 83f 81f
7:50 7ft 7s 6s 22 27 mph 1015.9mb 83f 80f
6:50 8ft 7s 6s 25 27 mph 1015.2mb 83f 80f
5:50 7ft 9s 6s 22 27 mph 1015.2mb 83f 80f
4:50 7ft 7s 6s 25 29 mph 1014.6mb 83f 79f
3:50 7.5ft 7s 6s 22 29 mph 1014.6mb 83f 79f
2:50 8ft 7s 6s 25 29 mph 1014.7mb 83f 78f
1:50 8ft 7s 6s 25 31 mph 1015mb 83f 79f
12:50 8ft 7s 6s 25 29 mph 1015.7mb 83f 79f